Дата Пункты Температура Давл., мм. Влажн., % Ветер Погодные явления
Воздуха Воды Направл. Скорость
11.02.15 01:00 Одесса -4.0 2.0 762 79 С 4 02 часа
10.02.15 10:00 Одесса -4.0 2.0 762 77 С 7 23 часа
10.02.15 07:00 Одесса -2.0 2.0 761 79 С 5 20 часов
10.02.15 04:00 Одесса -2.0 2.0 760 78 С 6 17 часов
10.02.15 01:00 Одесса -1.0 2.0 759 72 С 5 14 часов
10.02.15 07:00 Одесса -3.0 2.0 758 78 С 2 08 часов
10.02.15 04:00 Одесса -3.0 2.0 757 78 С-З 2 05 часов
10.02.15 01:00 Одесса -3.0 2.0 756 80 С-З 2 02 часа
09.02.15 10:00 Одесса -3.0 2.0 755 79 З 2 23 часа
09.02.15 07:00 Одесса -2.0 2.0 755 72 С-З 2 20 часов
09.02.15 01:00 Одесса 1.0 2.0 753 58 С-З 4 14 часов
09.02.15 07:00 Одесса -3.0 2.0 752 82 С-З 4 08 часов
09.02.15 04:00 Одесса -2.0 2.0 750 81 С-З 4 05 часов
09.02.15 01:00 Одесса -1.0 2.0 749 92 С-З 3 02 часа
08.02.15 10:00 Одесса -1.0 2.0 748 86 З 1 23 часа
08.02.15 07:00 Одесса -2.0 2.0 748 85 З 1 20 часов
08.02.15 04:00 Одесса -1.0 2.0 747 83 З 1 17 часов
08.02.15 01:00 Одесса -2.0 2.0 747 88 Ю-З 2 14 часов
08.02.15 10:00 Одесса -1.0 2.0 749 80 Ю-З 3 11 часов
08.02.15 07:00 Одесса -4.0 2.0 750 95 З 4 08 часов
Количество строк
361 362 363 364 365 366 367 368 369 370
Page 361 of 417